Time;durP1;ratioP1;P1;durP2;ratioP2;P2;SDS_P1;SDS_P2;PMS_P1;PMS_P2;Temp;Humidity;BMP_temperature;BMP_pressure;BME280_temperature;BME280_humidity;BME280_pressure;Samples;Min_cycle;Max_cycle;Signal;HPM_P1;HPM_P2
2023/03/29 00:01:06;;;;;;;1.50;1.10;;;;;12.50;101457.00;;;;5009008;28;20228;-79
2023/03/29 00:03:35;;;;;;;1.58;1.10;;;;;12.50;101455.00;;;;5008590;28;20193;-78
2023/03/29 00:06:04;;;;;;;2.38;1.05;;;;;12.50;101444.00;;;;5007716;28;20741;-78
2023/03/29 00:08:32;;;;;;;2.53;1.13;;;;;12.60;101452.00;;;;5006336;28;20225;-78
2023/03/29 00:11:00;;;;;;;1.40;1.05;;;;;12.60;101456.00;;;;5004964;28;20201;-78
2023/03/29 00:13:28;;;;;;;1.85;1.08;;;;;12.60;101459.00;;;;5004407;28;20205;-78
2023/03/29 00:15:56;;;;;;;3.58;1.50;;;;;12.60;101455.00;;;;5006811;28;20205;-78
2023/03/29 00:18:23;;;;;;;2.17;1.02;;;;;12.60;101452.00;;;;5008412;28;20196;-78
2023/03/29 00:20:56;;;;;;;2.58;1.33;;;;;12.60;101451.00;;;;5006308;28;20217;-78
2023/03/29 00:23:24;;;;;;;4.13;1.15;;;;;12.60;101445.00;;;;5003615;28;20197;-78
2023/03/29 00:25:52;;;;;;;2.00;1.13;;;;;12.60;101444.00;;;;5004678;28;20652;-78
2023/03/29 00:28:20;;;;;;;2.55;1.33;;;;;12.70;101442.00;;;;5006811;28;20248;-78
2023/03/29 00:30:49;;;;;;;2.78;1.30;;;;;12.70;101434.00;;;;5007109;28;20694;-78
2023/03/29 00:33:17;;;;;;;1.83;1.00;;;;;12.70;101423.00;;;;5001428;28;20695;-78
2023/03/29 00:35:45;;;;;;;2.55;1.20;;;;;12.70;101416.00;;;;5003253;28;20197;-78
2023/03/29 00:38:14;;;;;;;2.45;1.20;;;;;12.70;101419.00;;;;5007697;28;20196;-78
2023/03/29 00:40:43;;;;;;;1.52;1.20;;;;;12.70;101411.00;;;;5008321;28;20215;-78
2023/03/29 00:43:11;;;;;;;2.03;1.15;;;;;12.70;101414.00;;;;5007687;28;20201;-78
2023/03/29 00:45:39;;;;;;;2.25;1.25;;;;;12.70;101408.00;;;;5006399;28;20920;-78
2023/03/29 00:48:07;;;;;;;1.48;1.17;;;;;12.80;101403.00;;;;5007663;28;20685;-78
2023/03/29 00:50:39;;;;;;;1.58;1.10;;;;;12.70;101405.00;;;;5003426;28;20201;-78
2023/03/29 00:53:11;;;;;;;2.92;1.40;;;;;12.80;101401.00;;;;5007651;28;20192;-78
2023/03/29 00:55:44;;;;;;;2.42;1.38;;;;;12.80;101396.00;;;;5006885;28;20330;-78
2023/03/29 00:58:15;;;;;;;2.38;1.55;;;;;12.80;101395.00;;;;5007421;28;20204;-78
2023/03/29 01:00:48;;;;;;;2.30;1.17;;;;;12.80;101388.00;;;;4970355;28;1055630;-78
2023/03/29 01:03:23;;;;;;;2.63;0.90;;;;;12.80;101383.00;;;;5006898;28;20839;-78
2023/03/29 01:05:56;;;;;;;2.65;1.42;;;;;12.80;101375.00;;;;5006999;28;20275;-78
2023/03/29 01:08:26;;;;;;;2.88;1.38;;;;;12.80;101372.00;;;;5004631;28;20944;-78
2023/03/29 01:11:00;;;;;;;2.67;1.20;;;;;12.80;101368.00;;;;5003517;28;20208;-78
2023/03/29 01:13:37;;;;;;;1.48;0.95;;;;;12.80;101372.00;;;;5006570;28;20197;-78
2023/03/29 01:16:05;;;;;;;3.25;1.10;;;;;12.90;101355.00;;;;5006433;28;20201;-78
2023/03/29 01:18:33;;;;;;;2.08;1.30;;;;;12.80;101363.00;;;;5007388;28;20219;-78
2023/03/29 01:21:15;;;;;;;2.70;1.70;;;;;12.80;101364.00;;;;5004035;28;20649;-78
2023/03/29 01:24:06;;;;;;;3.05;1.20;;;;;12.80;101368.00;;;;5004040;28;20238;-78
2023/03/29 01:26:43;;;;;;;1.60;1.00;;;;;12.80;101360.00;;;;5004486;28;20193;-79
2023/03/29 01:29:16;;;;;;;2.40;1.40;;;;;12.90;101361.00;;;;4993137;28;20220;-78
2023/03/29 01:31:50;;;;;;;2.20;1.52;;;;;12.90;101360.00;;;;5004801;28;20208;-78
2023/03/29 01:34:26;;;;;;;1.70;1.20;;;;;12.90;101363.00;;;;5004800;28;20713;-78
2023/03/29 01:37:00;;;;;;;1.90;1.30;;;;;12.90;101351.00;;;;5007458;28;21016;-78
2023/03/29 01:39:28;;;;;;;1.88;1.15;;;;;12.90;101363.00;;;;5010229;28;20208;-78
2023/03/29 01:42:09;;;;;;;2.38;1.23;;;;;12.90;101346.00;;;;5008675;28;20207;-78
2023/03/29 01:44:47;;;;;;;2.75;1.38;;;;;12.90;101350.00;;;;5010606;28;20196;-78
2023/03/29 01:47:23;;;;;;;2.22;1.45;;;;;13.00;101346.00;;;;5010498;28;20200;-78
2023/03/29 01:49:58;;;;;;;1.98;1.20;;;;;13.00;101335.00;;;;5006561;28;20232;-78
2023/03/29 01:52:32;;;;;;;1.95;1.40;;;;;13.10;101341.00;;;;5010305;28;20192;-78
2023/03/29 01:55:04;;;;;;;2.75;1.50;;;;;13.10;101327.00;;;;5004275;28;20198;-78
2023/03/29 01:57:33;;;;;;;2.03;1.50;;;;;13.10;101334.00;;;;5005229;28;20858;-78
2023/03/29 02:00:10;;;;;;;1.77;1.40;;;;;13.10;101330.00;;;;5003765;28;20240;-78
2023/03/29 02:02:42;;;;;;;3.10;1.90;;;;;13.10;101335.00;;;;5004983;28;20955;-78
2023/03/29 02:05:11;;;;;;;2.25;1.42;;;;;13.20;101330.00;;;;5006009;28;20287;-78
2023/03/29 02:07:40;;;;;;;3.47;1.38;;;;;13.20;101318.00;;;;5008026;28;20208;-78
2023/03/29 02:10:11;;;;;;;3.13;1.60;;;;;13.20;101323.00;;;;5006754;28;20260;-78
2023/03/29 02:12:38;;;;;;;2.38;1.25;;;;;13.20;101322.00;;;;5005313;28;20667;-78
2023/03/29 02:15:12;;;;;;;2.45;1.60;;;;;13.20;101323.00;;;;5000966;28;20198;-78
2023/03/29 02:17:40;;;;;;;2.30;1.70;;;;;13.20;101320.00;;;;5007265;28;20193;-78
2023/03/29 02:20:16;;;;;;;2.22;1.40;;;;;13.20;101314.00;;;;5009806;28;20209;-78
2023/03/29 02:22:49;;;;;;;2.00;1.45;;;;;13.20;101314.00;;;;5006721;28;20295;-78
2023/03/29 02:25:17;;;;;;;2.95;1.50;;;;;13.30;101304.00;;;;5002472;28;20216;-78
2023/03/29 02:27:45;;;;;;;2.90;1.73;;;;;13.30;101303.00;;;;5006458;28;20200;-78
2023/03/29 02:30:15;;;;;;;3.78;1.65;;;;;13.30;101294.00;;;;5010241;28;20221;-78
2023/03/29 02:32:49;;;;;;;5.68;1.77;;;;;13.30;101295.00;;;;4993876;28;20325;-78
2023/03/29 02:35:21;;;;;;;2.65;1.55;;;;;13.30;101303.00;;;;5012048;28;20623;-78
2023/03/29 02:37:53;;;;;;;2.67;1.67;;;;;13.30;101295.00;;;;5009741;28;20197;-79
2023/03/29 02:40:23;;;;;;;3.80;1.55;;;;;13.30;101284.00;;;;5011671;28;20193;-78
2023/03/29 02:42:50;;;;;;;5.75;1.63;;;;;13.40;101279.00;;;;5011795;28;20197;-78
2023/03/29 02:45:20;;;;;;;3.35;2.25;;;;;13.40;101282.00;;;;5010221;28;20208;-78
2023/03/29 02:47:50;;;;;;;3.75;1.85;;;;;13.40;101280.00;;;;5010686;28;20213;-78
2023/03/29 02:50:18;;;;;;;3.03;1.92;;;;;13.40;101283.00;;;;5004647;28;20236;-78
2023/03/29 02:52:53;;;;;;;3.08;2.10;;;;;13.30;101282.00;;;;5010268;28;20570;-78
2023/03/29 02:55:24;;;;;;;2.88;1.80;;;;;13.40;101276.00;;;;5010814;28;20212;-78
2023/03/29 02:57:51;;;;;;;4.57;1.85;;;;;13.40;101275.00;;;;5010900;28;20205;-78
2023/03/29 03:00:22;;;;;;;2.90;1.67;;;;;13.40;101279.00;;;;5010538;28;20251;-79
2023/03/29 03:02:50;;;;;;;2.10;1.63;;;;;13.40;101275.00;;;;5000351;28;20231;-78
2023/03/29 03:05:18;;;;;;;2.67;1.60;;;;;13.50;101268.00;;;;5009155;28;20185;-78
2023/03/29 03:07:45;;;;;;;3.00;1.80;;;;;13.50;101266.00;;;;5008656;28;20671;-78
2023/03/29 03:10:13;;;;;;;1.60;1.30;;;;;13.50;101264.00;;;;5008944;28;20601;-78
2023/03/29 03:12:40;;;;;;;3.63;1.38;;;;;13.50;101264.00;;;;5009046;28;20199;-78
2023/03/29 03:15:09;;;;;;;2.55;1.50;;;;;13.50;101261.00;;;;5006674;28;20239;-78
2023/03/29 03:17:38;;;;;;;4.22;1.75;;;;;13.50;101259.00;;;;4998633;28;20292;-78
2023/03/29 03:20:11;;;;;;;1.88;1.35;;;;;13.50;101243.00;;;;5007975;28;20205;-78
2023/03/29 03:22:39;;;;;;;1.63;1.17;;;;;13.50;101251.00;;;;5006242;28;20256;-78
2023/03/29 03:25:10;;;;;;;2.80;1.85;;;;;13.50;101251.00;;;;5005733;28;20216;-78
2023/03/29 03:27:37;;;;;;;2.33;1.70;;;;;13.50;101244.00;;;;5006839;28;20665;-78
2023/03/29 03:30:06;;;;;;;1.85;1.25;;;;;13.50;101248.00;;;;5003820;28;20213;-79
2023/03/29 03:32:35;;;;;;;4.35;1.77;;;;;13.50;101254.00;;;;5008628;28;20193;-79
2023/03/29 03:35:04;;;;;;;2.05;1.65;;;;;13.50;101247.00;;;;4999532;28;20260;-78
2023/03/29 03:37:32;;;;;;;1.85;1.50;;;;;13.50;101245.00;;;;5008411;28;20203;-78
2023/03/29 03:39:59;;;;;;;2.30;1.80;;;;;13.50;101241.00;;;;5006923;28;20223;-78
2023/03/29 03:42:28;;;;;;;1.90;1.40;;;;;13.50;101239.00;;;;5009179;28;20205;-78
2023/03/29 03:44:56;;;;;;;2.40;1.67;;;;;13.60;101233.00;;;;5008689;28;20216;-78
2023/03/29 03:47:23;;;;;;;4.20;1.98;;;;;13.60;101245.00;;;;5009086;28;20205;-78
2023/03/29 03:49:51;;;;;;;2.70;1.80;;;;;13.60;101242.00;;;;5008039;28;20249;-78
2023/03/29 03:52:20;;;;;;;2.60;1.70;;;;;13.60;101249.00;;;;5007929;28;20197;-78
2023/03/29 03:54:49;;;;;;;3.78;1.77;;;;;13.60;101253.00;;;;5007271;28;20213;-78
2023/03/29 03:57:16;;;;;;;2.85;1.50;;;;;13.60;101252.00;;;;5002696;28;20335;-78
2023/03/29 03:59:43;;;;;;;1.98;1.70;;;;;13.60;101249.00;;;;5005528;28;20706;-78
2023/03/29 04:02:11;;;;;;;3.47;1.98;;;;;13.60;101257.00;;;;5007937;28;20201;-78
2023/03/29 04:04:39;;;;;;;2.88;2.03;;;;;13.60;101258.00;;;;5008657;28;20209;-78
2023/03/29 04:07:07;;;;;;;1.63;1.50;;;;;13.60;101244.00;;;;5008783;28;20285;-79
2023/03/29 04:09:36;;;;;;;2.05;1.67;;;;;13.60;101247.00;;;;5005279;28;21258;-78
2023/03/29 04:12:04;;;;;;;2.97;1.58;;;;;13.70;101246.00;;;;5007268;28;20658;-78
2023/03/29 04:14:32;;;;;;;2.60;1.50;;;;;13.70;101250.00;;;;5005130;28;20718;-78
2023/03/29 04:17:00;;;;;;;2.47;1.75;;;;;13.70;101242.00;;;;5009772;28;20232;-78
2023/03/29 04:19:27;;;;;;;4.00;1.70;;;;;13.70;101235.00;;;;5008033;28;20208;-78
2023/03/29 04:21:55;;;;;;;2.70;1.65;;;;;13.70;101231.00;;;;5007641;28;20197;-78
2023/03/29 04:24:24;;;;;;;5.15;1.90;;;;;13.70;101235.00;;;;5008764;28;20203;-78
2023/03/29 04:26:52;;;;;;;5.05;2.00;;;;;13.70;101233.00;;;;5006840;28;20205;-78
2023/03/29 04:29:20;;;;;;;3.38;1.70;;;;;13.70;101222.00;;;;5005521;28;20200;-78
2023/03/29 04:31:47;;;;;;;1.85;1.50;;;;;13.70;101216.00;;;;5000683;28;20205;-79
2023/03/29 04:34:15;;;;;;;3.05;1.80;;;;;13.70;101227.00;;;;5008373;28;20228;-78
2023/03/29 04:36:42;;;;;;;2.22;1.83;;;;;13.70;101214.00;;;;5007861;28;20201;-78
2023/03/29 04:39:09;;;;;;;2.72;1.95;;;;;13.70;101223.00;;;;5007237;28;20201;-78
2023/03/29 04:41:37;;;;;;;2.50;1.58;;;;;13.70;101215.00;;;;5005097;28;20204;-78
2023/03/29 04:44:07;;;;;;;2.60;1.80;;;;;13.70;101216.00;;;;5007689;28;20193;-78
2023/03/29 04:46:34;;;;;;;2.20;1.50;;;;;13.70;101219.00;;;;5007163;28;20197;-78
2023/03/29 04:49:02;;;;;;;4.00;1.98;;;;;13.70;101214.00;;;;5000599;28;20201;-78
2023/03/29 04:51:30;;;;;;;4.30;1.90;;;;;13.70;101224.00;;;;5002848;28;20267;-78
2023/03/29 04:53:57;;;;;;;2.95;1.80;;;;;13.80;101212.00;;;;5002839;28;20201;-78
2023/03/29 04:56:25;;;;;;;2.97;1.80;;;;;13.80;101218.00;;;;5004566;28;20197;-79
2023/03/29 04:58:52;;;;;;;2.60;1.40;;;;;13.80;101213.00;;;;5002943;28;20213;-78
2023/03/29 05:01:21;;;;;;;1.92;1.60;;;;;13.80;101209.00;;;;5001613;28;20232;-78
2023/03/29 05:03:48;;;;;;;5.78;2.20;;;;;13.80;101215.00;;;;5006825;28;20213;-78
2023/03/29 05:06:15;;;;;;;6.43;1.80;;;;;13.80;101209.00;;;;5000809;28;20197;-78
2023/03/29 05:08:43;;;;;;;3.17;1.52;;;;;13.80;101212.00;;;;5004367;28;20200;-78
2023/03/29 05:11:12;;;;;;;1.80;1.48;;;;;13.80;101205.00;;;;5005343;28;20341;-79
2023/03/29 05:13:41;;;;;;;2.50;1.80;;;;;13.80;101204.00;;;;5007137;28;21039;-78
2023/03/29 05:16:09;;;;;;;2.17;1.63;;;;;13.80;101198.00;;;;5006460;28;20219;-78
2023/03/29 05:18:38;;;;;;;2.80;1.42;;;;;13.80;101207.00;;;;5006229;28;20259;-78
2023/03/29 05:21:06;;;;;;;2.35;1.63;;;;;13.80;101199.00;;;;5005114;28;20296;-78
2023/03/29 05:23:34;;;;;;;3.05;1.92;;;;;13.80;101207.00;;;;4996831;28;20206;-78
2023/03/29 05:26:02;;;;;;;2.33;1.55;;;;;13.80;101204.00;;;;4999631;28;20660;-78
2023/03/29 05:28:32;;;;;;;2.08;1.60;;;;;13.80;101209.00;;;;5006054;28;20203;-79
2023/03/29 05:31:00;;;;;;;3.90;1.45;;;;;13.90;101207.00;;;;5000766;28;20232;-78
2023/03/29 05:33:28;;;;;;;3.00;1.75;;;;;13.90;101204.00;;;;5004619;28;20209;-78
2023/03/29 05:36:05;;;;;;;2.95;1.75;;;;;13.80;101213.00;;;;5003938;28;20197;-78
2023/03/29 05:38:32;;;;;;;2.28;1.55;;;;;13.90;101213.00;;;;5006330;28;20200;-78
2023/03/29 05:41:00;;;;;;;4.45;1.77;;;;;13.90;101210.00;;;;5007459;28;20617;-78
2023/03/29 05:43:27;;;;;;;4.35;1.70;;;;;13.90;101214.00;;;;5007414;28;20215;-78
2023/03/29 05:45:55;;;;;;;2.00;1.55;;;;;13.90;101217.00;;;;4998849;28;20193;-78
2023/03/29 05:48:24;;;;;;;3.10;2.05;;;;;13.90;101214.00;;;;5003310;28;20316;-78
2023/03/29 05:50:53;;;;;;;3.58;2.03;;;;;13.90;101211.00;;;;5001868;28;20775;-78
2023/03/29 05:53:23;;;;;;;2.58;1.92;;;;;13.90;101215.00;;;;5004164;28;20205;-78
2023/03/29 05:55:51;;;;;;;1.83;1.42;;;;;13.90;101221.00;;;;5004613;28;20545;-78
2023/03/29 05:58:19;;;;;;;2.58;1.90;;;;;14.00;101217.00;;;;5001344;28;20967;-79
2023/03/29 06:00:48;;;;;;;3.08;2.42;;;;;14.00;101215.00;;;;5004141;28;20224;-78
2023/03/29 06:03:18;;;;;;;2.78;1.85;;;;;14.00;101228.00;;;;5000813;28;20566;-78
2023/03/29 06:05:46;;;;;;;3.42;1.77;;;;;14.00;101226.00;;;;5006377;28;20224;-79
2023/03/29 06:08:14;;;;;;;3.42;2.40;;;;;14.00;101218.00;;;;5005417;28;20212;-80
2023/03/29 06:10:44;;;;;;;2.88;1.85;;;;;14.00;101227.00;;;;5004614;28;20231;-79
2023/03/29 06:13:11;;;;;;;3.03;2.20;;;;;14.10;101224.00;;;;5003699;28;20205;-80
2023/03/29 06:15:39;;;;;;;2.05;1.77;;;;;14.10;101224.00;;;;5004617;28;20199;-79
2023/03/29 06:18:06;;;;;;;5.53;2.13;;;;;14.10;101229.00;;;;4996551;28;20201;-79
2023/03/29 06:20:34;;;;;;;4.70;2.42;;;;;14.20;101230.00;;;;4999196;28;20201;-79
2023/03/29 06:23:01;;;;;;;3.10;2.47;;;;;14.20;101227.00;;;;5008581;28;20280;-79
2023/03/29 06:25:28;;;;;;;4.22;2.15;;;;;14.20;101229.00;;;;5008566;28;20213;-80
2023/03/29 06:27:57;;;;;;;4.35;1.80;;;;;14.30;101227.00;;;;5009964;28;20197;-80
2023/03/29 06:30:24;;;;;;;2.55;1.75;;;;;14.30;101228.00;;;;5008136;28;20220;-80
2023/03/29 06:32:52;;;;;;;3.20;1.92;;;;;14.30;101229.00;;;;5010566;28;20674;-81
2023/03/29 06:35:20;;;;;;;5.60;2.28;;;;;14.40;101231.00;;;;5010157;28;20296;-81
2023/03/29 06:37:49;;;;;;;3.28;2.00;;;;;14.40;101234.00;;;;5006339;28;20215;-79
2023/03/29 06:40:17;;;;;;;3.38;2.65;;;;;14.50;101226.00;;;;5010288;28;20603;-81
2023/03/29 06:42:45;;;;;;;4.13;2.47;;;;;14.50;101238.00;;;;5007859;28;20197;-80
2023/03/29 06:45:14;;;;;;;3.53;2.08;;;;;14.50;101221.00;;;;5010152;28;20205;-80
2023/03/29 06:47:42;;;;;;;3.65;2.58;;;;;14.60;101231.00;;;;5009731;28;20213;-80
2023/03/29 06:50:10;;;;;;;2.83;2.25;;;;;14.60;101236.00;;;;5010757;28;20221;-80
2023/03/29 06:52:37;;;;;;;3.15;2.13;;;;;14.60;101232.00;;;;5010750;28;20220;-80
2023/03/29 06:55:06;;;;;;;5.95;3.15;;;;;14.70;101234.00;;;;5010450;28;20208;-80
2023/03/29 06:57:34;;;;;;;2.83;2.10;;;;;14.70;101235.00;;;;5006007;28;20203;-80
2023/03/29 07:00:05;;;;;;;4.60;2.85;;;;;14.80;101233.00;;;;5011142;28;20247;-79
2023/03/29 07:02:34;;;;;;;5.57;2.60;;;;;14.80;101240.00;;;;5013710;28;20199;-81
2023/03/29 07:05:05;;;;;;;4.75;2.60;;;;;14.80;101250.00;;;;5002593;28;20200;-80
2023/03/29 07:07:52;;;;;;;4.25;2.30;;;;;14.90;101241.00;;;;5006605;28;20251;-81
2023/03/29 07:10:21;;;;;;;4.70;2.38;;;;;15.00;101240.00;;;;5008837;28;20702;-81
2023/03/29 07:12:49;;;;;;;4.57;2.72;;;;;15.00;101237.00;;;;5006301;28;20288;-81
2023/03/29 07:15:16;;;;;;;4.47;2.47;;;;;15.10;101239.00;;;;5008594;28;20205;-80
2023/03/29 07:17:45;;;;;;;3.33;2.42;;;;;15.10;101235.00;;;;5007745;28;20228;-81
2023/03/29 07:20:14;;;;;;;3.85;2.28;;;;;15.10;101238.00;;;;5006024;28;20204;-80
2023/03/29 07:22:42;;;;;;;4.03;2.40;;;;;15.20;101240.00;;;;5004531;28;20193;-80
2023/03/29 07:25:15;;;;;;;4.20;2.45;;;;;15.30;101250.00;;;;5002982;28;20734;-81
2023/03/29 07:27:46;;;;;;;4.13;2.47;;;;;15.30;101244.00;;;;5006750;28;20292;-81
2023/03/29 07:30:16;;;;;;;3.95;2.30;;;;;15.40;101253.00;;;;5006577;28;20546;-81
2023/03/29 07:32:47;;;;;;;4.85;2.42;;;;;15.40;101252.00;;;;4999474;28;20276;-81
2023/03/29 07:35:17;;;;;;;3.75;2.90;;;;;15.50;101248.00;;;;5007637;28;20212;-80
2023/03/29 07:37:46;;;;;;;4.00;2.45;;;;;15.50;101244.00;;;;5008595;28;20651;-80
2023/03/29 07:40:17;;;;;;;3.67;2.55;;;;;15.60;101246.00;;;;5008498;28;20703;-79
2023/03/29 07:42:47;;;;;;;4.28;2.33;;;;;15.70;101248.00;;;;4996055;28;20288;-80
2023/03/29 07:45:20;;;;;;;5.45;2.90;;;;;15.70;101253.00;;;;5000792;28;20203;-80
2023/03/29 07:47:49;;;;;;;5.95;3.15;;;;;15.80;101251.00;;;;4996115;28;20208;-79
2023/03/29 07:50:17;;;;;;;4.13;3.03;;;;;15.80;101251.00;;;;4998441;28;20670;-80
2023/03/29 07:52:45;;;;;;;4.55;2.85;;;;;15.90;101254.00;;;;5005611;28;20208;-81
2023/03/29 07:55:14;;;;;;;4.03;2.60;;;;;15.90;101258.00;;;;5005163;28;20197;-81
2023/03/29 07:57:43;;;;;;;4.32;2.72;;;;;16.00;101250.00;;;;5005016;28;20239;-80
2023/03/29 08:00:13;;;;;;;5.85;2.78;;;;;16.00;101253.00;;;;5006230;28;20320;-79
2023/03/29 08:02:42;;;;;;;4.85;2.58;;;;;16.10;101247.00;;;;5006813;28;20280;-80
2023/03/29 08:05:12;;;;;;;4.50;2.80;;;;;16.10;101251.00;;;;4998165;28;20288;-80
2023/03/29 08:07:43;;;;;;;4.60;3.25;;;;;16.10;101254.00;;;;5005456;28;20197;-80
2023/03/29 08:10:14;;;;;;;4.60;3.03;;;;;16.20;101251.00;;;;5004970;28;20193;-80
2023/03/29 08:12:42;;;;;;;4.63;2.97;;;;;16.20;101252.00;;;;5001133;28;20240;-80
2023/03/29 08:15:10;;;;;;;5.35;3.22;;;;;16.20;101250.00;;;;5003387;28;20212;-80
2023/03/29 08:17:38;;;;;;;5.50;2.92;;;;;16.30;101250.00;;;;5006004;28;20205;-79
2023/03/29 08:20:09;;;;;;;5.35;3.58;;;;;16.30;101253.00;;;;5002882;28;20196;-79
2023/03/29 08:22:39;;;;;;;4.90;3.00;;;;;16.30;101255.00;;;;5008119;28;20201;-79
2023/03/29 08:25:08;;;;;;;5.32;2.88;;;;;16.40;101251.00;;;;5008541;28;20201;-79
2023/03/29 08:27:36;;;;;;;4.25;3.35;;;;;16.40;101254.00;;;;5001236;28;20204;-79
2023/03/29 08:30:04;;;;;;;5.70;3.47;;;;;16.40;101248.00;;;;5003365;28;20197;-80
2023/03/29 08:32:31;;;;;;;5.82;2.95;;;;;16.50;101245.00;;;;5002793;28;20224;-80
2023/03/29 08:35:02;;;;;;;8.02;4.18;;;;;16.50;101244.00;;;;5004575;28;20207;-80
2023/03/29 08:37:30;;;;;;;5.25;3.50;;;;;16.60;101240.00;;;;5005960;28;20197;-80
2023/03/29 08:40:03;;;;;;;5.50;3.33;;;;;16.60;101236.00;;;;5006753;28;20201;-80
2023/03/29 08:42:52;;;;;;;4.45;3.50;;;;;16.60;101233.00;;;;5007980;28;20197;-79
2023/03/29 08:45:28;;;;;;;5.85;3.67;;;;;16.60;101228.00;;;;5004479;28;20189;-80
2023/03/29 08:48:11;;;;;;;6.30;3.33;;;;;16.70;101232.00;;;;5004592;28;20208;-79
2023/03/29 08:50:44;;;;;;;4.25;2.90;;;;;16.80;101230.00;;;;5002536;28;20197;-81
2023/03/29 08:53:18;;;;;;;6.80;4.03;;;;;16.90;101241.00;;;;5005632;28;20730;-79
2023/03/29 08:55:50;;;;;;;5.65;3.63;;;;;16.90;101241.00;;;;5005670;28;20200;-81
2023/03/29 08:58:20;;;;;;;9.68;4.07;;;;;16.90;101240.00;;;;5005560;28;20197;-82
2023/03/29 09:00:50;;;;;;;5.78;3.97;;;;;17.00;101240.00;;;;5002643;28;20225;-81
2023/03/29 09:03:21;;;;;;;6.80;4.15;;;;;17.00;101240.00;;;;4988992;28;20216;-82
2023/03/29 09:05:53;;;;;;;6.82;4.05;;;;;17.00;101242.00;;;;5004070;28;20193;-82
2023/03/29 09:08:23;;;;;;;5.40;3.97;;;;;17.10;101241.00;;;;4992640;28;20284;-82
2023/03/29 09:11:13;;;;;;;6.53;3.85;;;;;17.00;101245.00;;;;5006984;28;20228;-81
2023/03/29 09:13:47;;;;;;;7.38;3.90;;;;;17.10;101249.00;;;;5004211;28;20205;-82
2023/03/29 09:16:23;;;;;;;4.53;3.35;;;;;17.10;101250.00;;;;5003754;28;20189;-82
2023/03/29 09:19:05;;;;;;;5.60;3.67;;;;;17.20;101249.00;;;;4992944;28;20256;-82
2023/03/29 09:21:39;;;;;;;7.05;3.58;;;;;17.20;101257.00;;;;5000786;28;20270;-81
2023/03/29 09:24:36;;;;;;;6.57;3.92;;;;;17.20;101247.00;;;;5002635;28;20207;-81
2023/03/29 09:27:13;;;;;;;5.05;3.47;;;;;17.40;101253.00;;;;4993978;28;20201;-81
2023/03/29 09:29:52;;;;;;;7.03;3.83;;;;;17.40;101260.00;;;;5000114;28;20271;-81
2023/03/29 09:32:22;;;;;;;5.57;3.80;;;;;17.50;101260.00;;;;5003539;28;20598;-83
2023/03/29 09:34:58;;;;;;;4.85;3.53;;;;;17.50;101258.00;;;;5005071;28;20308;-82
2023/03/29 09:37:33;;;;;;;4.97;3.47;;;;;17.50;101260.00;;;;5002134;28;20205;-82
2023/03/29 09:40:03;;;;;;;7.03;3.90;;;;;17.60;101264.00;;;;5006475;28;20637;-82
2023/03/29 09:42:32;;;;;;;6.28;4.53;;;;;17.60;101263.00;;;;4997193;28;20215;-82
2023/03/29 09:45:07;;;;;;;6.78;4.78;;;;;17.60;101253.00;;;;5007176;28;20196;-81
2023/03/29 09:47:39;;;;;;;6.30;3.90;;;;;17.60;101257.00;;;;5005764;28;20208;-81
2023/03/29 09:50:14;;;;;;;5.82;4.15;;;;;17.60;101254.00;;;;5002023;28;20201;-82
2023/03/29 09:52:41;;;;;;;6.03;4.28;;;;;17.70;101263.00;;;;5002850;28;20637;-80
2023/03/29 09:55:14;;;;;;;6.72;4.25;;;;;17.70;101255.00;;;;5000697;28;20212;-80
2023/03/29 09:57:45;;;;;;;4.00;3.60;;;;;17.80;101246.00;;;;5003698;28;20200;-80
2023/03/29 10:00:13;;;;;;;7.18;4.15;;;;;17.90;101246.00;;;;5007413;28;20328;-81
2023/03/29 10:02:41;;;;;;;4.28;3.85;;;;;18.00;101245.00;;;;5007641;28;20288;-81
2023/03/29 10:05:15;;;;;;;5.05;3.97;;;;;18.10;101253.00;;;;5007879;28;20197;-81
2023/03/29 10:07:48;;;;;;;6.43;4.18;;;;;18.20;101248.00;;;;5009433;28;20584;-82
2023/03/29 10:10:22;;;;;;;9.18;4.97;;;;;18.20;101254.00;;;;5008769;28;20215;-81
2023/03/29 10:12:56;;;;;;;7.72;4.43;;;;;18.30;101253.00;;;;5008795;28;20572;-80
2023/03/29 10:15:26;;;;;;;6.93;5.38;;;;;18.30;101247.00;;;;5009184;28;20249;-80
2023/03/29 10:17:58;;;;;;;6.57;4.88;;;;;18.30;101251.00;;;;5009051;28;20212;-80
2023/03/29 10:20:26;;;;;;;5.97;4.47;;;;;18.40;101243.00;;;;5008348;28;20197;-80
2023/03/29 10:22:57;;;;;;;8.10;5.35;;;;;18.40;101250.00;;;;5007820;28;20204;-82
2023/03/29 10:25:27;;;;;;;8.55;4.85;;;;;18.40;101247.00;;;;5007610;28;20200;-81
2023/03/29 10:28:02;;;;;;;7.13;4.60;;;;;18.40;101241.00;;;;5005291;28;20209;-81
2023/03/29 10:30:33;;;;;;;6.47;5.10;;;;;18.40;101245.00;;;;5004519;28;20188;-81
2023/03/29 10:33:01;;;;;;;8.73;5.85;;;;;18.40;101238.00;;;;5005934;28;20228;-82
2023/03/29 10:35:32;;;;;;;7.88;4.97;;;;;18.40;101230.00;;;;5002072;28;20212;-81
2023/03/29 10:38:03;;;;;;;6.20;5.07;;;;;18.40;101225.00;;;;5008415;28;20228;-82
2023/03/29 10:40:33;;;;;;;6.40;5.40;;;;;18.50;101231.00;;;;5006474;28;20219;-82
2023/03/29 10:43:11;;;;;;;9.30;5.80;;;;;18.50;101239.00;;;;5010378;28;20573;-82
2023/03/29 10:45:41;;;;;;;7.43;4.78;;;;;18.60;101233.00;;;;5006511;28;20623;-82
2023/03/29 10:48:13;;;;;;;9.02;5.50;;;;;18.50;101232.00;;;;5010060;28;20260;-82
2023/03/29 10:50:41;;;;;;;5.40;4.18;;;;;18.60;101230.00;;;;5008802;28;20762;-81
2023/03/29 10:53:15;;;;;;;5.35;4.60;;;;;18.50;101229.00;;;;5009790;28;20228;-82
2023/03/29 10:55:51;;;;;;;6.82;5.07;;;;;18.50;101224.00;;;;5008214;28;20200;-82
2023/03/29 10:58:35;;;;;;;5.80;4.28;;;;;18.40;101223.00;;;;5008978;28;20775;-82
2023/03/29 11:01:03;;;;;;;5.95;5.03;;;;;18.50;101211.00;;;;5007748;28;20217;-81
2023/03/29 11:04:02;;;;;;;6.90;5.18;;;;;18.40;101207.00;;;;5008961;28;20216;-82
2023/03/29 11:06:37;;;;;;;7.10;5.22;;;;;18.50;101209.00;;;;5005163;28;20288;-81
2023/03/29 11:09:16;;;;;;;8.65;4.72;;;;;18.50;101199.00;;;;5009384;28;20207;-81
2023/03/29 11:12:06;;;;;;;6.60;5.03;;;;;18.40;101205.00;;;;5006811;28;20243;-82
2023/03/29 11:14:45;;;;;;;5.82;4.82;;;;;18.50;101194.00;;;;5006211;28;20251;-81
2023/03/29 11:17:27;;;;;;;5.75;4.72;;;;;18.40;101184.00;;;;5008591;28;20279;-81
2023/03/29 11:20:04;;;;;;;7.15;5.28;;;;;18.50;101186.00;;;;5000495;28;20215;-81
2023/03/29 11:22:41;;;;;;;6.55;5.20;;;;;18.50;101172.00;;;;4999986;28;20216;-81
2023/03/29 11:25:23;;;;;;;7.20;5.38;;;;;18.50;101188.00;;;;5009520;28;20188;-82
2023/03/29 11:27:59;;;;;;;5.85;5.20;;;;;18.50;101191.00;;;;5005910;28;20200;-82
2023/03/29 11:30:36;;;;;;;8.00;5.65;;;;;18.40;101179.00;;;;5007494;28;20192;-81
2023/03/29 11:33:16;;;;;;;6.50;5.88;;;;;18.40;101176.00;;;;5008768;28;20252;-82
2023/03/29 11:35:53;;;;;;;7.80;6.13;;;;;18.50;101179.00;;;;5006746;28;20211;-81
2023/03/29 11:38:27;;;;;;;8.77;6.97;;;;;18.50;101187.00;;;;5006792;28;20208;-82
2023/03/29 11:41:00;;;;;;;7.82;6.43;;;;;18.50;101187.00;;;;5005797;28;20597;-82
2023/03/29 11:43:33;;;;;;;7.90;7.07;;;;;18.50;101190.00;;;;5004072;28;20208;-81
2023/03/29 11:46:08;;;;;;;10.05;8.05;;;;;18.50;101195.00;;;;5003849;28;20292;-82
2023/03/29 11:48:41;;;;;;;8.45;7.13;;;;;18.60;101191.00;;;;5008591;28;20205;-82
2023/03/29 11:51:14;;;;;;;8.52;5.85;;;;;18.60;101196.00;;;;5004879;28;20202;-83
2023/03/29 11:53:50;;;;;;;7.93;6.68;;;;;18.60;101204.00;;;;5007392;28;20228;-81
2023/03/29 11:56:25;;;;;;;8.60;6.45;;;;;18.60;101199.00;;;;5005068;28;20207;-82
2023/03/29 11:58:57;;;;;;;8.57;6.35;;;;;18.60;101208.00;;;;5005548;28;20658;-81
2023/03/29 12:01:31;;;;;;;10.48;6.30;;;;;18.60;101214.00;;;;5006040;28;20224;-83
2023/03/29 12:04:02;;;;;;;10.90;7.03;;;;;18.70;101203.00;;;;5004117;28;20208;-82
2023/03/29 12:06:36;;;;;;;8.45;7.65;;;;;18.70;101202.00;;;;4999055;28;20203;-82
2023/03/29 12:09:09;;;;;;;6.85;6.15;;;;;18.70;101207.00;;;;5008359;28;20768;-83
2023/03/29 12:11:43;;;;;;;8.02;7.13;;;;;18.70;101208.00;;;;5005784;28;20193;-81
2023/03/29 12:14:17;;;;;;;7.47;6.72;;;;;18.70;101190.00;;;;5000716;28;20205;-82
2023/03/29 12:16:50;;;;;;;11.25;7.80;;;;;18.70;101194.00;;;;5002492;28;20216;-82
2023/03/29 12:19:21;;;;;;;10.25;7.50;;;;;18.70;101188.00;;;;5001587;28;20197;-80
2023/03/29 12:21:49;;;;;;;8.52;6.88;;;;;18.70;101201.00;;;;5003732;28;21932;-81
2023/03/29 12:24:19;;;;;;;11.10;7.72;;;;;18.60;101199.00;;;;5005005;28;20284;-82
2023/03/29 12:27:00;;;;;;;11.85;7.97;;;;;18.60;101195.00;;;;5003098;28;20190;-82